School Creek, Nebraska
Current Conditions -  °F | °C
As of 4:15 PM on Sunday 25 Jan 2015 (Local Time) from KAUH Reporting Station
Overcast Overcast  
Wind Chill: 37°   Ceiling: 3600
Heat Index: 41°   Visibility: 10mi
Dew Point: 33°   Wind: 6mph
Humidity: 73%   Direction: 340°NNW
Pressure: 30.08"   Gusts: NA
Location:  40.6539°N, 97.8811°W
Report Text: KAUH 252215Z AUTO 34005KT 10SM OVC036 05/01 A3008 RMK AO2 T00490005
Loading
Personal Weather Stations






























Interactive Weather Map New forecast layout! Learn more

10-Day Weather Forecast

Advertisements
Track Severe Weather on mobile